createdAt,value
2023-02-14T00:00:53.566Z,100028.70
2023-02-14T00:03:20.216Z,100024.21
2023-02-14T00:05:46.940Z,100017.75
2023-02-14T00:08:13.947Z,100020.23
2023-02-14T00:10:41.491Z,100014.30
2023-02-14T00:13:08.473Z,100013.14
2023-02-14T00:15:35.568Z,100001.52
2023-02-14T00:18:02.975Z,100003.79
2023-02-14T00:20:29.732Z,99993.99
2023-02-14T00:22:56.369Z,100000.41
2023-02-14T00:25:23.006Z,100002.88
2023-02-14T00:27:49.581Z,100005.77
2023-02-14T00:30:16.382Z,99991.85
2023-02-14T00:32:43.481Z,99991.80
2023-02-14T00:35:10.213Z,99993.27
2023-02-14T00:37:40.881Z,99988.96
2023-02-14T00:40:08.075Z,99985.30
2023-02-14T00:42:34.950Z,99976.31
2023-02-14T00:45:01.602Z,99974.34
2023-02-14T00:47:28.691Z,99978.27
2023-02-14T00:50:02.309Z,99972.84
2023-02-14T00:52:30.289Z,99982.71
2023-02-14T00:54:58.740Z,99973.18
2023-02-14T00:57:25.618Z,99964.34
2023-02-14T00:59:52.956Z,99971.12
2023-02-14T01:02:21.007Z,99978.46
2023-02-14T01:04:50.754Z,99979.41
2023-02-14T01:07:17.422Z,99989.17
2023-02-14T01:09:44.445Z,99985.92
2023-02-14T01:12:11.361Z,99981.73
2023-02-14T01:14:38.119Z,99979.83
2023-02-14T01:17:08.013Z,99964.77
2023-02-14T01:19:36.066Z,99969.99
2023-02-14T01:22:02.859Z,99971.43
2023-02-14T01:24:29.723Z,99966.25
2023-02-14T01:26:56.342Z,99964.30
2023-02-14T01:29:22.908Z,99960.65
2023-02-14T01:31:52.319Z,99948.29
2023-02-14T01:34:19.029Z,99942.80
2023-02-14T01:36:55.684Z,99936.86
2023-02-14T01:42:12.828Z,99933.30
2023-02-14T01:44:39.561Z,99926.43
2023-02-14T01:47:07.743Z,99917.89
2023-02-14T01:49:38.435Z,99919.38
2023-02-14T01:52:09.613Z,99909.81
2023-02-14T01:54:42.978Z,99902.59
2023-02-14T01:57:11.742Z,99898.70
2023-02-14T01:59:46.158Z,99890.84
2023-02-14T02:02:13.025Z,99887.38
2023-02-14T02:04:44.469Z,99882.09
2023-02-14T02:07:20.510Z,99883.55
2023-02-14T02:09:54.735Z,99881.00
2023-02-14T02:12:24.873Z,99883.20
2023-02-14T02:14:52.730Z,99882.55
2023-02-14T02:18:01.318Z,99888.45
2023-02-14T02:21:01.008Z,99883.45
2023-02-14T02:23:55.821Z,99881.71
2023-02-14T02:26:48.788Z,99879.91
2023-02-14T02:29:18.408Z,99877.29
2023-02-14T02:32:15.444Z,99863.61
2023-02-14T02:35:22.735Z,99863.70
2023-02-14T02:37:58.512Z,99866.56
2023-02-14T02:41:02.604Z,99860.34
2023-02-14T02:43:38.436Z,99858.05
2023-02-14T02:46:48.090Z,99862.64
2023-02-14T02:50:02.134Z,99866.05
2023-02-14T02:53:06.322Z,99866.45
2023-02-14T02:55:52.863Z,99878.11
2023-02-14T02:58:20.206Z,99881.59
2023-02-14T03:00:46.936Z,99885.23
2023-02-14T03:03:32.765Z,99888.30
2023-02-14T03:06:00.370Z,99892.98
2023-02-14T03:08:27.124Z,99905.59
2023-02-14T03:10:54.364Z,99913.37
2023-02-14T03:13:57.801Z,99912.02
2023-02-14T03:17:07.435Z,99912.73
2023-02-14T03:20:02.740Z,99918.48
2023-02-14T03:22:58.348Z,99925.63
2023-02-14T03:25:31.139Z,99921.92
2023-02-14T03:28:00.661Z,99927.91
2023-02-14T03:30:36.008Z,99926.89
2023-02-14T03:33:13.398Z,99939.05
2023-02-14T03:35:53.274Z,99944.27
2023-02-14T03:38:35.945Z,99938.73
2023-02-14T03:41:05.460Z,99941.84
2023-02-14T03:43:37.850Z,99941.69
2023-02-14T03:46:27.682Z,99944.87
2023-02-14T03:48:55.419Z,99945.08
2023-02-14T03:51:22.077Z,99943.45
2023-02-14T03:53:51.760Z,99944.59
2023-02-14T03:56:35.793Z,99948.25
2023-02-14T03:59:10.008Z,99940.52
2023-02-14T04:01:41.783Z,99942.08
2023-02-14T04:04:08.693Z,99941.86
2023-02-14T04:06:37.173Z,99933.58
2023-02-14T04:09:03.943Z,99931.55
2023-02-14T04:11:34.462Z,99931.73
2023-02-14T04:14:02.008Z,99932.50
2023-02-14T04:16:29.483Z,99924.30
2023-02-14T04:19:15.295Z,99922.34
2023-02-14T04:21:41.875Z,99923.19
2023-02-14T04:24:08.567Z,99914.13
2023-02-14T04:26:35.243Z,99924.38
2023-02-14T04:29:01.862Z,99928.95
2023-02-14T04:31:29.198Z,99934.79
2023-02-14T04:33:55.873Z,99948.64
2023-02-14T04:36:22.903Z,99958.43
2023-02-14T04:38:53.260Z,99959.66
2023-02-14T04:41:20.553Z,99952.80
2023-02-14T04:43:47.258Z,99960.20
2023-02-14T04:46:13.957Z,99968.54
2023-02-14T04:48:40.585Z,99973.88
2023-02-14T04:51:07.359Z,99977.33
2023-02-14T04:53:39.445Z,99983.17
2023-02-14T04:56:07.082Z,99987.50
2023-02-14T04:58:33.835Z,99989.34
2023-02-14T05:01:01.132Z,99996.90
2023-02-14T05:03:28.126Z,100000.67
2023-02-14T05:05:55.051Z,100008.11
2023-02-14T05:08:21.749Z,100004.03
2023-02-14T05:10:49.773Z,100005.60
2023-02-14T05:13:17.555Z,100006.46
2023-02-14T05:15:46.981Z,100002.30
2023-02-14T05:18:15.336Z,99999.27
2023-02-14T05:20:42.576Z,100005.48
2023-02-14T05:23:13.032Z,100005.79
2023-02-14T05:25:40.347Z,100001.25
2023-02-14T05:28:07.199Z,100003.91
2023-02-14T05:30:34.030Z,100000.83
2023-02-14T05:33:02.540Z,99996.95
2023-02-14T05:35:30.923Z,99997.23
2023-02-14T05:37:57.841Z,100000.27
2023-02-14T05:40:25.729Z,99999.18
2023-02-14T05:42:53.151Z,99995.82
2023-02-14T05:45:20.962Z,100004.21
2023-02-14T05:47:48.086Z,100006.45
2023-02-14T05:50:15.875Z,100010.73
2023-02-14T05:52:43.091Z,100006.27
2023-02-14T05:55:10.056Z,100012.02
2023-02-14T05:57:37.399Z,100012.38
2023-02-14T06:00:05.882Z,100014.44
2023-02-14T06:02:39.429Z,100016.27
2023-02-14T06:05:07.173Z,100013.60
2023-02-14T06:07:38.501Z,100014.99
2023-02-14T06:10:09.349Z,100017.58
2023-02-14T06:12:36.020Z,100020.95
2023-02-14T06:15:03.815Z,100022.54
2023-02-14T06:17:31.014Z,100024.93
2023-02-14T06:19:57.924Z,100027.11
2023-02-14T06:22:30.691Z,100031.94
2023-02-14T06:25:08.218Z,100019.53
2023-02-14T06:27:45.153Z,100023.86
2023-02-14T06:30:15.047Z,100033.63
2023-02-14T06:32:42.250Z,100031.14
2023-02-14T06:35:09.520Z,100035.52
2023-02-14T06:37:38.453Z,100036.86
2023-02-14T06:40:06.050Z,100035.50
2023-02-14T06:42:33.537Z,100038.14
2023-02-14T06:45:00.631Z,100038.33
2023-02-14T06:47:28.903Z,100036.51
2023-02-14T06:49:56.428Z,100033.23
2023-02-14T06:52:23.339Z,100030.65
2023-02-14T06:54:50.176Z,100031.80
2023-02-14T06:57:17.616Z,100026.39
2023-02-14T06:59:44.407Z,100027.51
2023-02-14T07:02:11.752Z,100027.67
2023-02-14T07:04:39.803Z,100032.81
2023-02-14T07:07:06.961Z,100038.63
2023-02-14T07:09:33.911Z,100032.46
2023-02-14T07:12:02.393Z,100030.64
2023-02-14T07:14:34.883Z,100035.48
2023-02-14T07:17:01.717Z,100036.55
2023-02-14T07:19:29.051Z,100034.39
2023-02-14T07:21:56.203Z,100036.05
2023-02-14T07:24:23.382Z,100031.80
2023-02-14T07:26:51.223Z,100028.36
2023-02-14T07:29:18.218Z,100029.92
2023-02-14T07:31:45.023Z,100031.02
2023-02-14T07:34:11.934Z,100026.32
2023-02-14T07:36:38.856Z,100032.05
2023-02-14T07:39:05.621Z,100027.00
2023-02-14T07:41:32.825Z,100023.20
2023-02-14T07:43:59.378Z,100019.98
2023-02-14T07:46:27.096Z,100024.48
2023-02-14T07:48:53.933Z,100029.58
2023-02-14T07:51:20.509Z,100041.31
2023-02-14T07:53:48.339Z,100037.81
2023-02-14T07:56:15.678Z,100033.13
2023-02-14T07:58:42.692Z,100033.56
2023-02-14T08:01:10.494Z,100033.48
2023-02-14T08:03:40.102Z,100021.80
2023-02-14T08:06:06.848Z,100024.02
2023-02-14T08:08:33.656Z,100023.65
2023-02-14T08:11:01.851Z,100028.35
2023-02-14T08:13:28.806Z,100026.69
2023-02-14T08:16:04.881Z,100018.27
2023-02-14T08:18:39.274Z,100020.50
2023-02-14T08:21:07.789Z,100029.70
2023-02-14T08:23:35.840Z,100033.67
2023-02-14T08:26:02.585Z,100031.11
2023-02-14T08:28:32.519Z,100027.50
2023-02-14T08:31:00.328Z,100028.08
2023-02-14T08:33:27.406Z,100035.73
2023-02-14T08:35:54.206Z,100033.91
2023-02-14T08:38:21.038Z,100030.16
2023-02-14T08:40:47.667Z,100026.40
2023-02-14T08:43:14.774Z,100033.52
2023-02-14T08:45:42.854Z,100033.02
2023-02-14T08:48:10.727Z,100039.32
2023-02-14T08:50:38.284Z,100042.52
2023-02-14T08:53:08.895Z,100041.06
2023-02-14T08:55:35.569Z,100035.08
2023-02-14T08:58:03.300Z,100038.63
2023-02-14T09:00:31.715Z,100041.43
2023-02-14T09:02:59.476Z,100044.65
2023-02-14T09:05:26.085Z,100046.91
2023-02-14T09:07:57.224Z,100046.77
2023-02-14T09:10:28.646Z,100050.77
2023-02-14T09:12:56.326Z,100047.53
2023-02-14T09:15:22.948Z,100044.74
2023-02-14T09:17:51.386Z,100039.08
2023-02-14T09:20:18.633Z,100044.92
2023-02-14T09:22:48.679Z,100048.66
2023-02-14T09:25:19.508Z,100058.45
2023-02-14T09:27:46.748Z,100055.90
2023-02-14T09:30:14.573Z,100057.07
2023-02-14T09:32:42.905Z,100044.85
2023-02-14T09:35:10.627Z,100049.55
2023-02-14T09:37:56.353Z,100045.80
2023-02-14T09:40:25.115Z,100046.95
2023-02-14T09:43:21.114Z,100042.98
2023-02-14T09:45:51.550Z,100037.77
2023-02-14T09:48:38.320Z,100036.40
2023-02-14T09:51:13.439Z,100041.79
2023-02-14T09:53:44.693Z,100034.19
2023-02-14T09:56:45.981Z,100033.27
2023-02-14T09:59:35.352Z,100030.02
2023-02-14T10:02:23.370Z,100033.21
2023-02-14T10:05:12.478Z,100030.63
2023-02-14T10:07:51.231Z,100030.79
2023-02-14T10:10:41.832Z,100031.99
2023-02-14T10:13:34.142Z,100033.60
2023-02-14T10:16:26.487Z,100038.08
2023-02-14T10:18:57.912Z,100034.63
2023-02-14T10:21:46.480Z,100023.75
2023-02-14T10:24:19.103Z,100029.48
2023-02-14T10:26:45.900Z,100026.14
2023-02-14T10:29:14.516Z,100015.16
2023-02-14T10:31:57.495Z,100015.11
2023-02-14T10:34:26.702Z,100011.56
2023-02-14T10:37:13.891Z,100015.64
2023-02-14T10:40:12.943Z,100022.95
2023-02-14T10:42:49.033Z,100016.66
2023-02-14T10:45:35.114Z,100013.42
2023-02-14T10:48:18.352Z,100015.52
2023-02-14T10:51:10.380Z,100011.20
2023-02-14T10:53:48.155Z,100009.19
2023-02-14T10:56:44.755Z,100009.67
2023-02-14T10:59:21.234Z,100007.56
2023-02-14T11:01:49.557Z,100012.93
2023-02-14T11:04:16.762Z,100005.64
2023-02-14T11:06:45.531Z,100004.06
2023-02-14T11:09:12.567Z,99998.99
2023-02-14T11:11:45.398Z,99993.83
2023-02-14T11:14:22.253Z,99994.39
2023-02-14T11:16:53.668Z,99997.45
2023-02-14T11:19:24.130Z,100001.49
2023-02-14T11:21:51.352Z,99992.86
2023-02-14T11:24:28.677Z,99996.11
2023-02-14T11:26:58.668Z,99993.61
2023-02-14T11:29:27.818Z,100000.88
2023-02-14T11:31:54.860Z,100001.33
2023-02-14T11:34:32.405Z,99998.14
2023-02-14T11:36:59.682Z,100000.11
2023-02-14T11:39:32.108Z,99999.33
2023-02-14T11:42:03.996Z,100001.73
2023-02-14T11:44:36.045Z,99999.50
2023-02-14T11:47:26.600Z,99998.75
2023-02-14T11:49:57.860Z,100001.77
2023-02-14T11:52:26.148Z,99993.16
2023-02-14T11:54:53.095Z,100001.89
2023-02-14T11:57:25.566Z,100004.34
2023-02-14T11:59:53.645Z,100004.52
2023-02-14T12:02:25.040Z,100002.70
2023-02-14T12:04:54.450Z,100007.48
2023-02-14T12:07:29.636Z,100005.14
2023-02-14T12:10:17.757Z,100003.26
2023-02-14T12:12:49.348Z,100006.43
2023-02-14T12:15:25.900Z,99997.48
2023-02-14T12:18:26.286Z,100000.56
2023-02-14T12:20:59.408Z,100002.63
2023-02-14T12:23:43.396Z,100002.67
2023-02-14T12:26:36.143Z,100005.29
2023-02-14T12:29:34.194Z,100001.70
2023-02-14T12:32:05.414Z,100005.46
2023-02-14T12:34:38.969Z,100012.52
2023-02-14T12:38:03.837Z,100013.34
2023-02-14T12:41:01.227Z,100012.30
2023-02-14T12:43:38.383Z,100017.67
2023-02-14T12:46:13.104Z,100018.68
2023-02-14T12:49:02.500Z,100021.00
2023-02-14T12:51:38.017Z,100020.59
2023-02-14T12:54:29.183Z,100009.09
2023-02-14T12:57:23.862Z,100013.54
2023-02-14T13:00:11.831Z,100014.80
2023-02-14T13:03:03.297Z,100017.98
2023-02-14T13:05:45.651Z,100026.38
2023-02-14T13:08:31.232Z,100030.92
2023-02-14T13:11:13.815Z,100030.55
2023-02-14T13:13:55.235Z,100044.92
2023-02-14T13:16:35.469Z,100041.83
2023-02-14T13:19:16.354Z,100036.98
2023-02-14T13:21:42.983Z,100034.63
2023-02-14T13:24:14.744Z,100047.53
2023-02-14T13:26:42.588Z,100050.11
2023-02-14T13:29:43.665Z,100055.36
2023-02-14T13:32:12.179Z,100064.28
2023-02-14T13:34:42.725Z,100061.02
2023-02-14T13:37:11.128Z,100064.92
2023-02-14T13:39:43.602Z,100066.58
2023-02-14T13:42:10.717Z,100067.80
2023-02-14T13:44:41.121Z,100074.92
2023-02-14T13:47:15.592Z,100082.10
2023-02-14T13:49:49.647Z,100081.98
2023-02-14T13:52:42.293Z,100076.39
2023-02-14T13:55:14.441Z,100075.77
2023-02-14T14:00:18.059Z,100076.84
2023-02-14T14:02:55.495Z,100086.40
2023-02-14T14:05:42.554Z,100096.04
2023-02-14T14:08:26.765Z,100097.73
2023-02-14T14:11:02.714Z,100102.91
2023-02-14T14:13:42.427Z,100103.72
2023-02-14T14:16:27.459Z,100108.35
2023-02-14T14:19:02.248Z,100109.10
2023-02-14T14:21:34.530Z,100111.25
2023-02-14T14:24:23.592Z,100122.09
2023-02-14T14:26:51.473Z,100128.20
2023-02-14T14:29:48.167Z,100137.04
2023-02-14T14:32:21.088Z,100133.77
2023-02-14T14:34:50.366Z,100140.40
2023-02-14T14:37:19.141Z,100142.02
2023-02-14T14:39:53.778Z,100156.12
2023-02-14T14:42:21.224Z,100161.26
2023-02-14T14:44:55.883Z,100155.60
2023-02-14T14:47:24.937Z,100159.09
2023-02-14T14:49:58.669Z,100161.11
2023-02-14T14:52:33.284Z,100166.63
2023-02-14T14:55:01.727Z,100160.23
2023-02-14T14:57:28.697Z,100168.78
2023-02-14T15:00:19.087Z,100168.25
2023-02-14T15:03:05.581Z,100178.05
2023-02-14T15:05:41.135Z,100181.77
2023-02-14T15:08:32.467Z,100185.30
2023-02-14T15:11:05.552Z,100188.98
2023-02-14T15:13:49.017Z,100191.16
2023-02-14T15:16:27.808Z,100195.02
2023-02-14T15:19:00.420Z,100199.02
2023-02-14T15:21:27.414Z,100200.03
2023-02-14T15:23:54.587Z,100198.31
2023-02-14T15:26:27.713Z,100201.61
2023-02-14T15:29:05.003Z,100202.50
2023-02-14T15:31:39.141Z,100198.89
2023-02-14T15:34:06.273Z,100208.89
2023-02-14T15:36:33.671Z,100215.05
2023-02-14T15:39:02.646Z,100221.95
2023-02-14T15:41:29.425Z,100224.14
2023-02-14T15:43:56.331Z,100231.24
2023-02-14T15:46:23.663Z,100236.93
2023-02-14T15:48:51.340Z,100243.74
2023-02-14T15:51:26.673Z,100249.91
2023-02-14T15:53:57.847Z,100257.65
2023-02-14T15:56:29.011Z,100259.73
2023-02-14T15:59:06.448Z,100260.11
2023-02-14T16:01:34.583Z,100262.71
2023-02-14T16:04:03.588Z,100262.63
2023-02-14T16:06:39.886Z,100271.37
2023-02-14T16:09:23.043Z,100272.39
2023-02-14T16:11:50.046Z,100272.15
2023-02-14T16:14:35.886Z,100274.83
2023-02-14T16:17:11.283Z,100268.59
2023-02-14T16:19:42.743Z,100276.22
2023-02-14T16:22:12.167Z,100278.61
2023-02-14T16:24:41.387Z,100285.20
2023-02-14T16:27:09.032Z,100290.70
2023-02-14T16:29:38.948Z,100297.60
2023-02-14T16:32:23.554Z,100298.27
2023-02-14T16:34:50.899Z,100302.21
2023-02-14T16:37:20.705Z,100307.20
2023-02-14T16:39:47.827Z,100307.81
2023-02-14T16:42:16.518Z,100308.30
2023-02-14T16:44:44.252Z,100310.11
2023-02-14T16:47:11.941Z,100310.66
2023-02-14T16:49:40.730Z,100315.10
2023-02-14T16:52:26.292Z,100318.50
2023-02-14T16:54:54.427Z,100321.54
2023-02-14T16:57:30.131Z,100325.83
2023-02-14T16:59:57.285Z,100330.81
2023-02-14T17:02:27.594Z,100337.30
2023-02-14T17:04:55.256Z,100338.24
2023-02-14T17:07:21.991Z,100348.01
2023-02-14T17:09:52.764Z,100354.16
2023-02-14T17:12:21.618Z,100356.14
2023-02-14T17:14:52.688Z,100361.41
2023-02-14T17:17:19.296Z,100360.92
2023-02-14T17:19:46.055Z,100367.60
2023-02-14T17:22:13.144Z,100371.33
2023-02-14T17:24:40.690Z,100371.85
2023-02-14T17:27:08.110Z,100368.02
2023-02-14T17:29:35.265Z,100373.94
2023-02-14T17:32:01.990Z,100375.00
2023-02-14T17:34:33.163Z,100379.77
2023-02-14T17:37:02.341Z,100385.38
2023-02-14T17:39:29.221Z,100388.98
2023-02-14T17:41:59.009Z,100388.06
2023-02-14T17:44:25.807Z,100399.12
2023-02-14T17:46:54.117Z,100408.55
2023-02-14T17:49:21.253Z,100411.15
2023-02-14T17:51:48.810Z,100413.36
2023-02-14T17:54:16.285Z,100415.42
2023-02-14T17:56:42.991Z,100418.34
2023-02-14T17:59:10.032Z,100419.87
2023-02-14T18:01:40.846Z,100421.08
2023-02-14T18:04:07.632Z,100422.79
2023-02-14T18:06:34.902Z,100429.73
2023-02-14T18:09:04.714Z,100428.81
2023-02-14T18:11:33.925Z,100434.11
2023-02-14T18:14:01.070Z,100435.88
2023-02-14T18:16:29.152Z,100435.98
2023-02-14T18:18:56.598Z,100435.50
2023-02-14T18:21:28.047Z,100437.29
2023-02-14T18:24:00.020Z,100437.34
2023-02-14T18:26:27.096Z,100437.45
2023-02-14T18:28:53.957Z,100436.70
2023-02-14T18:31:22.275Z,100436.26
2023-02-14T18:33:51.188Z,100440.91
2023-02-14T18:36:20.809Z,100442.19
2023-02-14T18:38:48.296Z,100444.80
2023-02-14T18:41:17.103Z,100440.81
2023-02-14T18:43:44.978Z,100446.94
2023-02-14T18:46:13.741Z,100448.70
2023-02-14T18:48:40.461Z,100451.69
2023-02-14T18:51:11.453Z,100452.70
2023-02-14T18:53:38.922Z,100456.42
2023-02-14T18:56:06.762Z,100457.41
2023-02-14T18:58:33.659Z,100456.32
2023-02-14T19:01:14.106Z,100452.07
2023-02-14T19:03:41.636Z,100458.27
2023-02-14T19:06:09.083Z,100459.70
2023-02-14T19:08:37.871Z,100455.77
2023-02-14T19:11:16.111Z,100460.23
2023-02-14T19:13:47.428Z,100458.91
2023-02-14T19:16:19.561Z,100464.67
2023-02-14T19:18:49.660Z,100466.36
2023-02-14T19:21:19.332Z,100465.92
2023-02-14T19:23:46.278Z,100471.55
2023-02-14T19:26:17.702Z,100470.00
2023-02-14T19:28:45.129Z,100468.80
2023-02-14T19:31:12.886Z,100467.42
2023-02-14T19:33:46.441Z,100471.40
2023-02-14T19:36:15.641Z,100477.20
2023-02-14T19:38:46.891Z,100480.39
2023-02-14T19:41:16.209Z,100484.85
2023-02-14T19:43:45.432Z,100485.39
2023-02-14T19:46:13.357Z,100492.35
2023-02-14T19:48:40.114Z,100492.17
2023-02-14T19:51:07.283Z,100493.90
2023-02-14T19:53:34.062Z,100491.85
2023-02-14T19:56:01.036Z,100490.02
2023-02-14T19:58:27.846Z,100493.23
2023-02-14T20:00:59.581Z,100493.30
2023-02-14T20:03:27.240Z,100493.84
2023-02-14T20:05:54.643Z,100493.84
2023-02-14T20:08:22.761Z,100495.16
2023-02-14T20:10:53.770Z,100493.73
2023-02-14T20:13:22.043Z,100495.45
2023-02-14T20:15:48.769Z,100495.67
2023-02-14T20:18:18.995Z,100494.85
2023-02-14T20:21:03.468Z,100493.70
2023-02-14T20:23:31.636Z,100497.23
2023-02-14T20:25:59.027Z,100500.61
2023-02-14T20:28:25.928Z,100501.96
2023-02-14T20:30:52.810Z,100505.91
2023-02-14T20:33:20.157Z,100505.45
2023-02-14T20:35:46.771Z,100510.42
2023-02-14T20:38:14.625Z,100511.94
2023-02-14T20:40:42.779Z,100513.52
2023-02-14T20:43:09.379Z,100514.71
2023-02-14T20:45:37.628Z,100514.20
2023-02-14T20:48:06.328Z,100518.86
2023-02-14T20:50:34.878Z,100520.82
2023-02-14T20:53:01.949Z,100516.96
2023-02-14T20:55:30.616Z,100520.82
2023-02-14T20:58:01.807Z,100522.85
2023-02-14T21:00:29.516Z,100525.87
2023-02-14T21:02:56.730Z,100528.68
2023-02-14T21:05:23.615Z,100531.71
2023-02-14T21:07:51.642Z,100533.60
2023-02-14T21:10:19.410Z,100531.96
2023-02-14T21:12:52.063Z,100536.40
2023-02-14T21:15:22.205Z,100539.08
2023-02-14T21:17:49.125Z,100537.23
2023-02-14T21:20:19.011Z,100535.73
2023-02-14T21:22:47.599Z,100536.27
2023-02-14T21:25:15.079Z,100538.40
2023-02-14T21:27:42.319Z,100543.50
2023-02-14T21:30:11.248Z,100543.20
2023-02-14T21:32:38.759Z,100543.65
2023-02-14T21:35:07.516Z,100548.48
2023-02-14T21:37:35.213Z,100547.71
2023-02-14T21:40:02.561Z,100552.20
2023-02-14T21:42:30.035Z,100554.27
2023-02-14T21:45:15.917Z,100552.64
2023-02-14T21:48:03.704Z,100554.83
2023-02-14T21:50:30.511Z,100556.41
2023-02-14T21:52:57.301Z,100560.06
2023-02-14T21:55:24.233Z,100560.15
2023-02-14T21:57:50.864Z,100558.45
2023-02-14T22:00:18.772Z,100560.92
2023-02-14T22:02:45.508Z,100558.85
2023-02-14T22:05:12.660Z,100561.45
2023-02-14T22:07:39.344Z,100561.34
2023-02-14T22:10:06.778Z,100560.02
2023-02-14T22:12:33.704Z,100562.27
2023-02-14T22:15:03.746Z,100558.66
2023-02-14T22:17:31.865Z,100563.96
2023-02-14T22:19:59.427Z,100560.82
2023-02-14T22:22:26.403Z,100562.56
2023-02-14T22:24:53.133Z,100563.97
2023-02-14T22:27:20.040Z,100565.00
2023-02-14T22:29:46.722Z,100565.21
2023-02-14T22:32:13.905Z,100558.94
2023-02-14T22:34:41.020Z,100559.46
2023-02-14T22:37:08.069Z,100561.30
2023-02-14T22:39:34.693Z,100562.39
2023-02-14T22:42:06.128Z,100561.60
2023-02-14T22:44:32.819Z,100561.25
2023-02-14T22:47:00.700Z,100568.38
2023-02-14T22:49:27.592Z,100565.23
2023-02-14T22:51:54.325Z,100565.68
2023-02-14T22:54:20.985Z,100564.38
2023-02-14T22:56:50.535Z,100564.62
2023-02-14T22:59:18.267Z,100568.52
2023-02-14T23:01:45.423Z,100566.84
2023-02-14T23:04:17.132Z,100563.73
2023-02-14T23:06:45.338Z,100563.96
2023-02-14T23:09:12.675Z,100566.08
2023-02-14T23:11:40.697Z,100561.85
2023-02-14T23:14:26.523Z,100564.30
2023-02-14T23:17:12.049Z,100565.52
2023-02-14T23:19:57.318Z,100567.27
2023-02-14T23:22:42.285Z,100569.34
2023-02-14T23:25:10.147Z,100570.88
2023-02-14T23:27:48.565Z,100569.52
2023-02-14T23:30:16.749Z,100580.17
2023-02-14T23:32:43.798Z,100577.35
2023-02-14T23:35:10.509Z,100578.96
2023-02-14T23:37:42.782Z,100580.77
2023-02-14T23:40:13.231Z,100587.20
2023-02-14T23:42:40.356Z,100587.66
2023-02-14T23:45:28.391Z,100590.27
2023-02-14T23:47:55.246Z,100588.09
2023-02-14T23:50:22.086Z,100594.20
2023-02-14T23:52:49.231Z,100596.17
2023-02-14T23:55:18.548Z,100599.79
2023-02-14T23:57:45.866Z,100599.82
